sensor_id;sensor_type;location;lat;lon;timestamp;pressure;altitude;pressure_sealevel;temperature;humidity
73429;BME280;61643;49.564;17.412;2022-08-03T00:02:19;98514.38;;;15.42;78.86
73429;BME280;61643;49.564;17.412;2022-08-03T00:04:45;98518.50;;;15.34;79.03
73429;BME280;61643;49.564;17.412;2022-08-03T00:07:10;98520.34;;;15.44;78.62
73429;BME280;61643;49.564;17.412;2022-08-03T00:09:36;98519.25;;;15.45;78.59
73429;BME280;61643;49.564;17.412;2022-08-03T00:12:01;98514.63;;;15.45;78.18
73429;BME280;61643;49.564;17.412;2022-08-03T00:14:27;98519.00;;;15.41;78.34
73429;BME280;61643;49.564;17.412;2022-08-03T00:16:52;98518.16;;;15.46;78.26
73429;BME280;61643;49.564;17.412;2022-08-03T00:19:17;98527.94;;;15.47;78.33
73429;BME280;61643;49.564;17.412;2022-08-03T00:21:43;98519.78;;;15.47;78.06
73429;BME280;61643;49.564;17.412;2022-08-03T00:24:08;98518.22;;;15.41;78.40
73429;BME280;61643;49.564;17.412;2022-08-03T00:26:33;98514.94;;;15.39;78.23
73429;BME280;61643;49.564;17.412;2022-08-03T00:28:59;98518.47;;;15.44;77.79
73429;BME280;61643;49.564;17.412;2022-08-03T00:31:24;98512.25;;;15.39;77.92
73429;BME280;61643;49.564;17.412;2022-08-03T00:33:49;98517.41;;;15.35;78.31
73429;BME280;61643;49.564;17.412;2022-08-03T00:36:15;98515.31;;;15.22;79.05
73429;BME280;61643;49.564;17.412;2022-08-03T00:38:40;98518.34;;;15.15;79.22
73429;BME280;61643;49.564;17.412;2022-08-03T00:41:06;98513.19;;;15.14;79.20
73429;BME280;61643;49.564;17.412;2022-08-03T00:43:31;98522.69;;;15.11;79.43
73429;BME280;61643;49.564;17.412;2022-08-03T00:45:56;98518.13;;;15.02;79.80
73429;BME280;61643;49.564;17.412;2022-08-03T00:48:22;98522.22;;;14.94;79.67
73429;BME280;61643;49.564;17.412;2022-08-03T00:50:48;98517.66;;;14.85;80.18
73429;BME280;61643;49.564;17.412;2022-08-03T00:53:13;98513.88;;;14.86;80.23
73429;BME280;61643;49.564;17.412;2022-08-03T00:55:40;98512.50;;;14.83;79.97
73429;BME280;61643;49.564;17.412;2022-08-03T00:58:06;98511.97;;;14.86;80.00
73429;BME280;61643;49.564;17.412;2022-08-03T01:00:34;98512.78;;;14.82;79.88
73429;BME280;61643;49.564;17.412;2022-08-03T01:03:06;98506.56;;;14.76;80.22
73429;BME280;61643;49.564;17.412;2022-08-03T01:05:57;98506.59;;;14.71;80.06
73429;BME280;61643;49.564;17.412;2022-08-03T01:08:37;98499.63;;;14.50;80.44
73429;BME280;61643;49.564;17.412;2022-08-03T01:13:59;98506.91;;;14.54;80.71
73429;BME280;61643;49.564;17.412;2022-08-03T01:16:32;98509.34;;;14.51;80.52
73429;BME280;61643;49.564;17.412;2022-08-03T01:27:46;98512.06;;;14.51;80.45
73429;BME280;61643;49.564;17.412;2022-08-03T01:30:15;98514.22;;;14.59;80.27
73429;BME280;61643;49.564;17.412;2022-08-03T01:32:49;98510.97;;;14.52;79.98
73429;BME280;61643;49.564;17.412;2022-08-03T01:35:23;98507.19;;;14.53;80.24
73429;BME280;61643;49.564;17.412;2022-08-03T01:38:00;98500.97;;;14.47;80.32
73429;BME280;61643;49.564;17.412;2022-08-03T01:40:27;98508.53;;;14.55;80.09
73429;BME280;61643;49.564;17.412;2022-08-03T01:42:54;98504.75;;;14.56;80.58
73429;BME280;61643;49.564;17.412;2022-08-03T01:45:21;98513.66;;;14.62;80.16
73429;BME280;61643;49.564;17.412;2022-08-03T01:47:48;98504.44;;;14.58;80.21
73429;BME280;61643;49.564;17.412;2022-08-03T01:50:16;98504.47;;;14.53;80.88
73429;BME280;61643;49.564;17.412;2022-08-03T01:52:44;98508.81;;;14.54;80.96
73429;BME280;61643;49.564;17.412;2022-08-03T01:55:11;98507.22;;;14.38;81.92
73429;BME280;61643;49.564;17.412;2022-08-03T01:57:38;98500.69;;;14.34;81.48
73429;BME280;61643;49.564;17.412;2022-08-03T02:00:05;98502.06;;;14.36;81.59
73429;BME280;61643;49.564;17.412;2022-08-03T02:02:35;98501.00;;;14.42;80.32
73429;BME280;61643;49.564;17.412;2022-08-03T02:05:04;98497.44;;;14.52;80.18
73429;BME280;61643;49.564;17.412;2022-08-03T02:07:31;98494.72;;;14.52;79.86
73429;BME280;61643;49.564;17.412;2022-08-03T02:09:57;98492.03;;;14.52;79.62
73429;BME280;61643;49.564;17.412;2022-08-03T02:12:26;98496.09;;;14.49;79.77
73429;BME280;61643;49.564;17.412;2022-08-03T02:14:53;98493.13;;;14.46;79.57
73429;BME280;61643;49.564;17.412;2022-08-03T02:17:20;98493.13;;;14.30;80.33
73429;BME280;61643;49.564;17.412;2022-08-03T02:19:48;98489.59;;;14.30;79.95
73429;BME280;61643;49.564;17.412;2022-08-03T02:22:14;98491.50;;;14.29;79.60
73429;BME280;61643;49.564;17.412;2022-08-03T02:24:41;98494.47;;;14.33;79.76
73429;BME280;61643;49.564;17.412;2022-08-03T02:27:16;98498.53;;;14.25;80.54
73429;BME280;61643;49.564;17.412;2022-08-03T02:29:45;98498.28;;;14.32;79.70
73429;BME280;61643;49.564;17.412;2022-08-03T02:32:16;98498.03;;;14.39;78.97
73429;BME280;61643;49.564;17.412;2022-08-03T02:34:46;98496.13;;;14.34;78.86
73429;BME280;61643;49.564;17.412;2022-08-03T02:37:14;98493.69;;;14.38;79.42
73429;BME280;61643;49.564;17.412;2022-08-03T02:39:43;98498.28;;;14.32;80.42
73429;BME280;61643;49.564;17.412;2022-08-03T02:42:10;98498.00;;;14.34;79.80
73429;BME280;61643;49.564;17.412;2022-08-03T02:44:37;98497.75;;;14.25;80.15
73429;BME280;61643;49.564;17.412;2022-08-03T02:47:07;98494.50;;;14.23;80.04
73429;BME280;61643;49.564;17.412;2022-08-03T02:49:34;98495.84;;;14.15;80.13
73429;BME280;61643;49.564;17.412;2022-08-03T02:52:01;98501.81;;;14.12;80.24
73429;BME280;61643;49.564;17.412;2022-08-03T02:54:29;98500.19;;;14.11;80.10
73429;BME280;61643;49.564;17.412;2022-08-03T02:56:56;98497.47;;;14.11;79.93
73429;BME280;61643;49.564;17.412;2022-08-03T02:59:23;98489.94;;;14.03;80.52
73429;BME280;61643;49.564;17.412;2022-08-03T03:01:50;98497.78;;;13.74;82.27
73429;BME280;61643;49.564;17.412;2022-08-03T03:04:18;98496.41;;;13.87;81.79
73429;BME280;61643;49.564;17.412;2022-08-03T03:06:44;98494.78;;;13.91;81.70
73429;BME280;61643;49.564;17.412;2022-08-03T03:09:10;98499.66;;;13.94;80.89
73429;BME280;61643;49.564;17.412;2022-08-03T03:11:37;98505.34;;;13.98;80.96
73429;BME280;61643;49.564;17.412;2022-08-03T03:14:03;98500.72;;;14.08;80.88
73429;BME280;61643;49.564;17.412;2022-08-03T03:16:30;98503.44;;;14.08;81.03
73429;BME280;61643;49.564;17.412;2022-08-03T03:18:57;98501.53;;;14.09;80.49
73429;BME280;61643;49.564;17.412;2022-08-03T03:21:24;98505.63;;;14.06;80.99
73429;BME280;61643;49.564;17.412;2022-08-03T03:23:51;98502.91;;;14.06;80.36
73429;BME280;61643;49.564;17.412;2022-08-03T03:26:17;98507.25;;;14.02;81.32
73429;BME280;61643;49.564;17.412;2022-08-03T03:28:43;98512.91;;;14.01;81.19
73429;BME280;61643;49.564;17.412;2022-08-03T03:31:09;98517.78;;;14.04;80.88
73429;BME280;61643;49.564;17.412;2022-08-03T03:33:35;98516.44;;;13.86;82.15
73429;BME280;61643;49.564;17.412;2022-08-03T03:36:02;98509.94;;;13.67;83.10
73429;BME280;61643;49.564;17.412;2022-08-03T03:38:29;98505.59;;;13.76;82.45
73429;BME280;61643;49.564;17.412;2022-08-03T03:40:54;98511.84;;;13.82;82.60
73429;BME280;61643;49.564;17.412;2022-08-03T03:43:21;98517.53;;;13.85;82.82
73429;BME280;61643;49.564;17.412;2022-08-03T03:45:48;98516.97;;;13.53;84.32
73429;BME280;61643;49.564;17.412;2022-08-03T03:48:14;98510.19;;;13.65;83.48
73429;BME280;61643;49.564;17.412;2022-08-03T03:50:39;98505.88;;;13.69;83.38
73429;BME280;61643;49.564;17.412;2022-08-03T03:53:08;98510.47;;;13.79;82.98
73429;BME280;61643;49.564;17.412;2022-08-03T03:55:33;98513.72;;;13.86;82.60
73429;BME280;61643;49.564;17.412;2022-08-03T03:57:58;98520.78;;;13.87;82.60
73429;BME280;61643;49.564;17.412;2022-08-03T04:00:24;98517.00;;;13.88;82.82
73429;BME280;61643;49.564;17.412;2022-08-03T04:02:49;98527.25;;;14.01;82.42
73429;BME280;61643;49.564;17.412;2022-08-03T04:05:15;98517.00;;;13.88;83.45
73429;BME280;61643;49.564;17.412;2022-08-03T04:08:06;98520.47;;;14.04;82.90
73429;BME280;61643;49.564;17.412;2022-08-03T04:11:04;98534.56;;;14.31;81.92
73429;BME280;61643;49.564;17.412;2022-08-03T04:13:45;98526.97;;;14.33;82.11
73429;BME280;61643;49.564;17.412;2022-08-03T04:16:13;98529.41;;;14.29;82.26
73429;BME280;61643;49.564;17.412;2022-08-03T04:18:40;98522.63;;;14.22;83.32
73429;BME280;61643;49.564;17.412;2022-08-03T04:21:09;98535.31;;;14.62;81.94
73429;BME280;61643;49.564;17.412;2022-08-03T04:23:39;98535.81;;;14.84;80.89
73429;BME280;61643;49.564;17.412;2022-08-03T04:26:08;98537.44;;;14.80;81.56
73429;BME280;61643;49.564;17.412;2022-08-03T04:28:36;98529.56;;;14.89;80.80
73429;BME280;61643;49.564;17.412;2022-08-03T04:31:04;98538.47;;;15.04;81.21
73429;BME280;61643;49.564;17.412;2022-08-03T04:33:32;98536.41;;;15.35;79.58
73429;BME280;61643;49.564;17.412;2022-08-03T04:35:59;98539.53;;;15.62;78.35
73429;BME280;61643;49.564;17.412;2022-08-03T04:38:26;98535.63;;;15.79;78.86
73429;BME280;61643;49.564;17.412;2022-08-03T04:40:54;98534.13;;;15.96;77.84
73429;BME280;61643;49.564;17.412;2022-08-03T04:43:21;98540.53;;;16.10;76.96
73429;BME280;61643;49.564;17.412;2022-08-03T04:45:48;98540.94;;;16.28;77.00
73429;BME280;61643;49.564;17.412;2022-08-03T04:48:15;98542.38;;;16.49;76.23
73429;BME280;61643;49.564;17.412;2022-08-03T04:50:41;98543.25;;;16.68;75.45
73429;BME280;61643;49.564;17.412;2022-08-03T04:53:07;98548.41;;;16.93;74.28
73429;BME280;61643;49.564;17.412;2022-08-03T04:55:34;98550.41;;;16.88;75.04
73429;BME280;61643;49.564;17.412;2022-08-03T04:58:00;98546.09;;;17.05;74.64
73429;BME280;61643;49.564;17.412;2022-08-03T05:00:27;98546.78;;;17.16;74.53
73429;BME280;61643;49.564;17.412;2022-08-03T05:02:52;98539.81;;;17.10;76.16
73429;BME280;61643;49.564;17.412;2022-08-03T05:05:19;98543.34;;;17.10;73.31
73429;BME280;61643;49.564;17.412;2022-08-03T05:07:44;98537.78;;;17.39;73.07
73429;BME280;61643;49.564;17.412;2022-08-03T05:10:11;98533.72;;;17.79;72.97
73429;BME280;61643;49.564;17.412;2022-08-03T05:12:37;98533.97;;;17.96;73.06
73429;BME280;61643;49.564;17.412;2022-08-03T05:15:03;98534.47;;;18.31;71.98
73429;BME280;61643;49.564;17.412;2022-08-03T05:17:28;98540.31;;;18.24;70.24
73429;BME280;61643;49.564;17.412;2022-08-03T05:19:54;98545.69;;;18.29;70.22
73429;BME280;61643;49.564;17.412;2022-08-03T05:22:20;98542.75;;;18.26;70.50
73429;BME280;61643;49.564;17.412;2022-08-03T05:24:46;98549.31;;;18.25;70.04
73429;BME280;61643;49.564;17.412;2022-08-03T05:27:11;98550.13;;;18.25;69.89
73429;BME280;61643;49.564;17.412;2022-08-03T05:29:43;98552.25;;;18.28;69.54
73429;BME280;61643;49.564;17.412;2022-08-03T05:32:09;98546.81;;;18.28;69.92
73429;BME280;61643;49.564;17.412;2022-08-03T05:34:34;98555.72;;;18.34;67.87
73429;BME280;61643;49.564;17.412;2022-08-03T05:36:59;98550.06;;;18.44;68.43
73429;BME280;61643;49.564;17.412;2022-08-03T05:39:25;98560.00;;;18.53;69.01
73429;BME280;61643;49.564;17.412;2022-08-03T05:41:50;98556.63;;;18.43;66.95
73429;BME280;61643;49.564;17.412;2022-08-03T05:44:16;98555.50;;;18.62;68.11
73429;BME280;61643;49.564;17.412;2022-08-03T05:46:41;98552.84;;;18.57;68.44
73429;BME280;61643;49.564;17.412;2022-08-03T05:49:06;98550.25;;;18.66;67.76
73429;BME280;61643;49.564;17.412;2022-08-03T05:51:32;98558.25;;;18.76;67.78
73429;BME280;61643;49.564;17.412;2022-08-03T05:53:57;98552.47;;;18.78;69.25
73429;BME280;61643;49.564;17.412;2022-08-03T05:56:23;98566.63;;;18.93;68.32
73429;BME280;61643;49.564;17.412;2022-08-03T05:58:51;98558.56;;;19.02;67.65
73429;BME280;61643;49.564;17.412;2022-08-03T06:01:18;98561.28;;;19.15;66.84
73429;BME280;61643;49.564;17.412;2022-08-03T06:03:46;98566.13;;;19.18;66.61
73429;BME280;61643;49.564;17.412;2022-08-03T06:06:11;98566.84;;;19.38;66.76
73429;BME280;61643;49.564;17.412;2022-08-03T06:08:38;98567.03;;;19.55;67.17
73429;BME280;61643;49.564;17.412;2022-08-03T06:11:04;98568.81;;;19.73;66.91
73429;BME280;61643;49.564;17.412;2022-08-03T06:13:29;98561.53;;;19.82;65.44
73429;BME280;61643;49.564;17.412;2022-08-03T06:15:55;98567.84;;;19.91;64.00
73429;BME280;61643;49.564;17.412;2022-08-03T06:18:20;98566.69;;;20.06;63.95
73429;BME280;61643;49.564;17.412;2022-08-03T06:20:46;98569.78;;;20.13;62.87
73429;BME280;61643;49.564;17.412;2022-08-03T06:23:11;98575.41;;;20.30;62.73
73429;BME280;61643;49.564;17.412;2022-08-03T06:25:36;98565.03;;;20.41;61.74
73429;BME280;61643;49.564;17.412;2022-08-03T06:28:02;98569.63;;;20.54;62.42
73429;BME280;61643;49.564;17.412;2022-08-03T06:30:29;98578.94;;;20.53;62.96
73429;BME280;61643;49.564;17.412;2022-08-03T06:32:54;98563.84;;;20.33;63.99
73429;BME280;61643;49.564;17.412;2022-08-03T06:35:20;98573.00;;;20.29;62.09
73429;BME280;61643;49.564;17.412;2022-08-03T06:37:47;98576.78;;;20.41;62.56
73429;BME280;61643;49.564;17.412;2022-08-03T06:40:15;98571.50;;;20.45;63.60
73429;BME280;61643;49.564;17.412;2022-08-03T06:42:40;98578.69;;;20.63;63.04
73429;BME280;61643;49.564;17.412;2022-08-03T06:45:07;98583.50;;;20.66;63.91
73429;BME280;61643;49.564;17.412;2022-08-03T06:47:36;98577.56;;;20.64;63.01
73429;BME280;61643;49.564;17.412;2022-08-03T06:50:06;98576.41;;;20.56;63.25
73429;BME280;61643;49.564;17.412;2022-08-03T06:52:31;98569.88;;;20.44;63.03
73429;BME280;61643;49.564;17.412;2022-08-03T06:54:57;98581.56;;;20.36;63.23
73429;BME280;61643;49.564;17.412;2022-08-03T06:57:23;98579.13;;;20.34;63.83
73429;BME280;61643;49.564;17.412;2022-08-03T06:59:48;98575.63;;;20.20;63.21
73429;BME280;61643;49.564;17.412;2022-08-03T07:02:14;98586.50;;;20.11;63.98
73429;BME280;61643;49.564;17.412;2022-08-03T07:04:39;98586.44;;;20.03;64.37
73429;BME280;61643;49.564;17.412;2022-08-03T07:07:05;98582.31;;;19.92;64.66
73429;BME280;61643;49.564;17.412;2022-08-03T07:09:30;98589.03;;;19.86;65.03
73429;BME280;61643;49.564;17.412;2022-08-03T07:11:56;98584.47;;;19.81;65.91
73429;BME280;61643;49.564;17.412;2022-08-03T07:14:21;98593.28;;;19.78;66.63
73429;BME280;61643;49.564;17.412;2022-08-03T07:16:47;98585.69;;;19.75;67.35
73429;BME280;61643;49.564;17.412;2022-08-03T07:19:12;98584.28;;;19.78;67.54
73429;BME280;61643;49.564;17.412;2022-08-03T07:21:38;98586.69;;;19.79;67.79
73429;BME280;61643;49.564;17.412;2022-08-03T07:24:03;98593.34;;;19.87;67.59
73429;BME280;61643;49.564;17.412;2022-08-03T07:26:29;98583.50;;;19.99;66.86
73429;BME280;61643;49.564;17.412;2022-08-03T07:28:54;98589.94;;;20.17;66.22
73429;BME280;61643;49.564;17.412;2022-08-03T07:31:20;98583.59;;;20.30;65.83
73429;BME280;61643;49.564;17.412;2022-08-03T07:33:45;98588.03;;;20.40;65.67
73429;BME280;61643;49.564;17.412;2022-08-03T07:36:10;98584.72;;;20.51;65.08
73429;BME280;61643;49.564;17.412;2022-08-03T07:38:36;98588.00;;;20.62;64.54
73429;BME280;61643;49.564;17.412;2022-08-03T07:41:02;98586.13;;;20.71;63.93
73429;BME280;61643;49.564;17.412;2022-08-03T07:43:27;98585.09;;;20.89;66.78
73429;BME280;61643;49.564;17.412;2022-08-03T07:45:53;98584.88;;;21.08;64.72
73429;BME280;61643;49.564;17.412;2022-08-03T07:48:18;98584.94;;;21.25;64.77
73429;BME280;61643;49.564;17.412;2022-08-03T07:50:43;98584.19;;;21.33;63.48
73429;BME280;61643;49.564;17.412;2022-08-03T07:53:09;98587.56;;;21.39;62.66
73429;BME280;61643;49.564;17.412;2022-08-03T07:55:34;98580.19;;;21.48;66.23
73429;BME280;61643;49.564;17.412;2022-08-03T08:00:25;98585.56;;;21.70;62.58
73429;BME280;61643;49.564;17.412;2022-08-03T08:02:51;98583.75;;;21.74;61.58
73429;BME280;61643;49.564;17.412;2022-08-03T08:05:16;98581.84;;;21.75;61.33
73429;BME280;61643;49.564;17.412;2022-08-03T08:07:42;98585.06;;;21.77;61.30
73429;BME280;61643;49.564;17.412;2022-08-03T08:10:08;98579.75;;;21.80;61.73
73429;BME280;61643;49.564;17.412;2022-08-03T08:12:34;98586.84;;;21.90;62.47
73429;BME280;61643;49.564;17.412;2022-08-03T08:14:59;98579.78;;;21.97;62.51
73429;BME280;61643;49.564;17.412;2022-08-03T08:17:25;98579.31;;;22.04;62.18
73429;BME280;61643;49.564;17.412;2022-08-03T08:19:50;98579.16;;;22.09;60.91
73429;BME280;61643;49.564;17.412;2022-08-03T08:22:16;98580.41;;;22.29;60.54
73429;BME280;61643;49.564;17.412;2022-08-03T08:24:41;98572.50;;;22.44;62.11
73429;BME280;61643;49.564;17.412;2022-08-03T08:27:08;98579.56;;;22.54;61.16
73429;BME280;61643;49.564;17.412;2022-08-03T08:29:36;98569.72;;;22.62;61.16
73429;BME280;61643;49.564;17.412;2022-08-03T08:32:02;98572.63;;;22.65;59.50
73429;BME280;61643;49.564;17.412;2022-08-03T08:34:27;98567.94;;;22.66;57.92
73429;BME280;61643;49.564;17.412;2022-08-03T08:36:52;98574.69;;;22.85;60.26
73429;BME280;61643;49.564;17.412;2022-08-03T08:39:18;98568.53;;;22.97;60.07
73429;BME280;61643;49.564;17.412;2022-08-03T08:41:43;98568.69;;;23.00;59.80
73429;BME280;61643;49.564;17.412;2022-08-03T08:44:09;98565.72;;;23.05;58.76
73429;BME280;61643;49.564;17.412;2022-08-03T08:46:37;98575.72;;;23.19;60.12
73429;BME280;61643;49.564;17.412;2022-08-03T08:49:03;98578.50;;;23.39;57.71
73429;BME280;61643;49.564;17.412;2022-08-03T08:51:31;98573.50;;;23.41;56.33
73429;BME280;61643;49.564;17.412;2022-08-03T08:54:01;98568.81;;;23.42;51.59
73429;BME280;61643;49.564;17.412;2022-08-03T08:56:29;98569.09;;;23.49;54.38
73429;BME280;61643;49.564;17.412;2022-08-03T08:59:00;98568.63;;;23.47;54.90
73429;BME280;61643;49.564;17.412;2022-08-03T09:01:26;98565.88;;;23.47;57.38
73429;BME280;61643;49.564;17.412;2022-08-03T09:03:53;98563.41;;;23.54;56.45
73429;BME280;61643;49.564;17.412;2022-08-03T09:06:22;98562.03;;;23.69;55.86
73429;BME280;61643;49.564;17.412;2022-08-03T09:08:47;98566.38;;;23.70;55.89
73429;BME280;61643;49.564;17.412;2022-08-03T09:11:14;98559.59;;;23.67;55.33
73429;BME280;61643;49.564;17.412;2022-08-03T09:13:39;98563.47;;;23.66;54.74
73429;BME280;61643;49.564;17.412;2022-08-03T09:18:35;98569.94;;;23.70;54.02
73429;BME280;61643;49.564;17.412;2022-08-03T09:23:45;98564.69;;;23.77;52.59
73429;BME280;61643;49.564;17.412;2022-08-03T09:26:11;98560.50;;;23.80;52.24
73429;BME280;61643;49.564;17.412;2022-08-03T09:28:36;98562.56;;;23.83;52.73
73429;BME280;61643;49.564;17.412;2022-08-03T09:31:02;98558.28;;;23.94;54.26
73429;BME280;61643;49.564;17.412;2022-08-03T09:33:28;98556.47;;;23.98;52.64
73429;BME280;61643;49.564;17.412;2022-08-03T09:35:53;98563.91;;;23.97;52.07
73429;BME280;61643;49.564;17.412;2022-08-03T09:40:50;98557.19;;;24.07;52.63
73429;BME280;61643;49.564;17.412;2022-08-03T09:43:16;98555.88;;;24.13;51.08
73429;BME280;61643;49.564;17.412;2022-08-03T09:45:41;98551.50;;;24.12;53.20
73429;BME280;61643;49.564;17.412;2022-08-03T09:50:59;98556.94;;;24.21;53.46
73429;BME280;61643;49.564;17.412;2022-08-03T09:53:25;98553.44;;;24.32;55.68
73429;BME280;61643;49.564;17.412;2022-08-03T09:55:52;98550.50;;;24.37;53.25
73429;BME280;61643;49.564;17.412;2022-08-03T09:58:20;98544.84;;;24.34;50.93
73429;BME280;61643;49.564;17.412;2022-08-03T10:03:21;98549.13;;;24.43;52.02
73429;BME280;61643;49.564;17.412;2022-08-03T10:05:47;98545.34;;;24.48;52.27
73429;BME280;61643;49.564;17.412;2022-08-03T10:08:18;98549.03;;;24.52;52.36
73429;BME280;61643;49.564;17.412;2022-08-03T10:10:46;98545.94;;;24.54;52.73
73429;BME280;61643;49.564;17.412;2022-08-03T10:13:19;98543.31;;;24.57;52.76
73429;BME280;61643;49.564;17.412;2022-08-03T10:15:45;98553.38;;;24.53;53.19
73429;BME280;61643;49.564;17.412;2022-08-03T10:18:11;98544.78;;;24.55;51.89
73429;BME280;61643;49.564;17.412;2022-08-03T10:20:42;98539.41;;;24.58;52.20
73429;BME280;61643;49.564;17.412;2022-08-03T10:23:08;98532.41;;;24.61;52.29
73429;BME280;61643;49.564;17.412;2022-08-03T10:25:37;98533.47;;;24.68;51.95
73429;BME280;61643;49.564;17.412;2022-08-03T10:28:02;98536.00;;;24.73;51.72
73429;BME280;61643;49.564;17.412;2022-08-03T10:30:31;98532.25;;;24.78;50.08
73429;BME280;61643;49.564;17.412;2022-08-03T10:33:18;98525.25;;;24.80;49.49
73429;BME280;61643;49.564;17.412;2022-08-03T10:35:45;98529.94;;;24.80;49.92
73429;BME280;61643;49.564;17.412;2022-08-03T10:38:19;98519.06;;;24.83;50.21
73429;BME280;61643;49.564;17.412;2022-08-03T10:40:46;98518.38;;;24.86;48.02
73429;BME280;61643;49.564;17.412;2022-08-03T10:43:19;98513.81;;;24.90;50.13
73429;BME280;61643;49.564;17.412;2022-08-03T10:45:46;98510.13;;;24.98;50.01
73429;BME280;61643;49.564;17.412;2022-08-03T10:48:12;98502.81;;;25.03;49.04
73429;BME280;61643;49.564;17.412;2022-08-03T10:50:38;98508.06;;;25.08;50.28
73429;BME280;61643;49.564;17.412;2022-08-03T10:53:05;98502.34;;;25.13;47.93
73429;BME280;61643;49.564;17.412;2022-08-03T10:55:42;98514.38;;;25.20;48.52
73429;BME280;61643;49.564;17.412;2022-08-03T10:58:53;98508.19;;;25.35;50.06
73429;BME280;61643;49.564;17.412;2022-08-03T11:01:51;98502.78;;;25.39;46.91
73429;BME280;61643;49.564;17.412;2022-08-03T11:04:19;98502.53;;;25.44;49.50
73429;BME280;61643;49.564;17.412;2022-08-03T11:06:45;98499.88;;;25.47;49.11
73429;BME280;61643;49.564;17.412;2022-08-03T11:09:17;98508.94;;;25.48;48.75
73429;BME280;61643;49.564;17.412;2022-08-03T11:11:44;98501.28;;;25.41;47.09
73429;BME280;61643;49.564;17.412;2022-08-03T11:14:19;98499.78;;;25.44;45.25
73429;BME280;61643;49.564;17.412;2022-08-03T11:16:47;98491.28;;;25.49;48.80
73429;BME280;61643;49.564;17.412;2022-08-03T11:19:18;98485.19;;;25.56;48.17
73429;BME280;61643;49.564;17.412;2022-08-03T11:27:22;98482.06;;;25.69;45.49
73429;BME280;61643;49.564;17.412;2022-08-03T11:29:57;98484.81;;;25.69;45.63
73429;BME280;61643;49.564;17.412;2022-08-03T11:37:33;98472.72;;;25.86;44.51
73429;BME280;61643;49.564;17.412;2022-08-03T11:39:59;98473.19;;;25.76;46.14
73429;BME280;61643;49.564;17.412;2022-08-03T11:44:52;98466.78;;;25.72;47.55
73429;BME280;61643;49.564;17.412;2022-08-03T11:47:21;98463.13;;;25.68;46.57
73429;BME280;61643;49.564;17.412;2022-08-03T11:49:49;98460.66;;;25.78;45.14
73429;BME280;61643;49.564;17.412;2022-08-03T11:52:16;98458.72;;;25.79;46.74
73429;BME280;61643;49.564;17.412;2022-08-03T11:54:42;98459.34;;;25.88;46.87
73429;BME280;61643;49.564;17.412;2022-08-03T11:57:08;98463.41;;;26.06;45.29
73429;BME280;61643;49.564;17.412;2022-08-03T11:59:35;98455.94;;;26.07;45.87
73429;BME280;61643;49.564;17.412;2022-08-03T12:02:12;98455.44;;;26.17;46.58
73429;BME280;61643;49.564;17.412;2022-08-03T12:04:53;98461.75;;;26.17;46.40
73429;BME280;61643;49.564;17.412;2022-08-03T12:07:23;98455.22;;;26.22;47.72
73429;BME280;61643;49.564;17.412;2022-08-03T12:10:08;98457.06;;;26.18;46.75
73429;BME280;61643;49.564;17.412;2022-08-03T12:12:34;98463.03;;;26.20;46.99
73429;BME280;61643;49.564;17.412;2022-08-03T12:15:00;98454.59;;;26.28;47.80
73429;BME280;61643;49.564;17.412;2022-08-03T12:17:39;98451.88;;;26.44;45.86
73429;BME280;61643;49.564;17.412;2022-08-03T12:20:07;98454.28;;;26.61;43.30
73429;BME280;61643;49.564;17.412;2022-08-03T12:22:36;98451.06;;;26.75;45.13
73429;BME280;61643;49.564;17.412;2022-08-03T12:25:08;98444.38;;;26.91;43.19
73429;BME280;61643;49.564;17.412;2022-08-03T12:27:44;98446.53;;;26.98;43.43
73429;BME280;61643;49.564;17.412;2022-08-03T12:30:09;98449.72;;;27.00;44.02
73429;BME280;61643;49.564;17.412;2022-08-03T12:32:36;98445.34;;;27.15;43.24
73429;BME280;61643;49.564;17.412;2022-08-03T12:35:01;98444.50;;;27.30;44.23
73429;BME280;61643;49.564;17.412;2022-08-03T12:37:28;98442.03;;;27.44;43.26
73429;BME280;61643;49.564;17.412;2022-08-03T12:39:59;98441.41;;;27.51;43.03
73429;BME280;61643;49.564;17.412;2022-08-03T12:42:33;98446.69;;;27.56;43.58
73429;BME280;61643;49.564;17.412;2022-08-03T12:44:58;98444.72;;;27.56;43.08
73429;BME280;61643;49.564;17.412;2022-08-03T12:47:23;98436.50;;;27.44;43.84
73429;BME280;61643;49.564;17.412;2022-08-03T12:49:50;98436.47;;;27.25;44.27
73429;BME280;61643;49.564;17.412;2022-08-03T12:52:19;98438.09;;;27.26;43.37
73429;BME280;61643;49.564;17.412;2022-08-03T12:54:58;98431.63;;;27.03;43.84
73429;BME280;61643;49.564;17.412;2022-08-03T12:57:23;98433.31;;;26.91;44.03
73429;BME280;61643;49.564;17.412;2022-08-03T12:59:49;98435.28;;;26.60;44.07
73429;BME280;61643;49.564;17.412;2022-08-03T13:02:19;98431.09;;;26.50;44.84
73429;BME280;61643;49.564;17.412;2022-08-03T13:04:45;98430.56;;;26.44;45.38
73429;BME280;61643;49.564;17.412;2022-08-03T13:07:12;98437.06;;;26.52;44.90
73429;BME280;61643;49.564;17.412;2022-08-03T13:09:44;98429.13;;;26.66;44.92
73429;BME280;61643;49.564;17.412;2022-08-03T13:12:17;98441.81;;;26.83;44.57
73429;BME280;61643;49.564;17.412;2022-08-03T13:14:46;98433.31;;;26.91;42.97
73429;BME280;61643;49.564;17.412;2022-08-03T13:17:12;98434.03;;;27.04;42.05
73429;BME280;61643;49.564;17.412;2022-08-03T13:19:38;98434.69;;;27.17;39.75
73429;BME280;61643;49.564;17.412;2022-08-03T13:22:21;98434.16;;;27.27;41.62
73429;BME280;61643;49.564;17.412;2022-08-03T13:24:49;98439.13;;;27.37;41.17
73429;BME280;61643;49.564;17.412;2022-08-03T13:27:15;98434.47;;;27.41;41.22
73429;BME280;61643;49.564;17.412;2022-08-03T13:29:40;98425.56;;;27.48;42.28
73429;BME280;61643;49.564;17.412;2022-08-03T13:32:07;98423.03;;;27.42;43.76
73429;BME280;61643;49.564;17.412;2022-08-03T13:34:33;98421.56;;;27.45;43.09